createdAt,value
2018-02-15T00:00:16.288Z,101681.61
2018-02-15T00:02:45.435Z,101677.63
2018-02-15T00:05:13.766Z,101680.87
2018-02-15T00:07:42.140Z,101675.45
2018-02-15T00:10:10.478Z,101671.48
2018-02-15T00:12:38.828Z,101678.09
2018-02-15T00:15:07.160Z,101679.28
2018-02-15T00:17:35.864Z,101682.64
2018-02-15T00:20:05.002Z,101685.06
2018-02-15T00:22:33.348Z,101684.73
2018-02-15T00:25:01.671Z,101677.60
2018-02-15T00:27:30.423Z,101673.50
2018-02-15T00:29:58.745Z,101669.09
2018-02-15T00:32:27.101Z,101672.84
2018-02-15T00:34:55.421Z,101681.15
2018-02-15T00:37:23.769Z,101681.64
2018-02-15T00:39:52.893Z,101682.70
2018-02-15T00:42:21.261Z,101676.77
2018-02-15T00:44:49.588Z,101673.35
2018-02-15T00:47:17.985Z,101682.50
2018-02-15T00:49:46.334Z,101682.25
2018-02-15T00:52:15.507Z,101682.89
2018-02-15T00:54:43.872Z,101678.48
2018-02-15T00:57:12.193Z,101678.55
2018-02-15T00:59:40.557Z,101671.47
2018-02-15T01:02:09.692Z,101676.89
2018-02-15T01:04:38.046Z,101672.70
2018-02-15T01:07:06.368Z,101671.62
2018-02-15T01:09:34.732Z,101675.39
2018-02-15T01:12:03.087Z,101676.28
2018-02-15T01:14:31.393Z,101681.78
2018-02-15T01:16:59.749Z,101687.02
2018-02-15T01:19:28.074Z,101683.56
2018-02-15T01:21:56.443Z,101686.45
2018-02-15T01:24:24.765Z,101677.32
2018-02-15T01:26:53.106Z,101678.88
2018-02-15T01:29:21.475Z,101673.50
2018-02-15T01:31:49.795Z,101666.75
2018-02-15T01:34:18.137Z,101672.58
2018-02-15T01:36:46.500Z,101663.91
2018-02-15T01:39:14.825Z,101661.08
2018-02-15T01:41:43.210Z,101667.08
2018-02-15T01:44:11.561Z,101668.74
2018-02-15T01:46:40.641Z,101667.86
2018-02-15T01:49:08.994Z,101673.32
2018-02-15T01:51:37.315Z,101676.44
2018-02-15T01:54:06.505Z,101675.84
2018-02-15T01:56:35.588Z,101673.63
2018-02-15T01:59:03.909Z,101672.47
2018-02-15T02:01:32.251Z,101667.02
2018-02-15T02:04:00.575Z,101662.27
2018-02-15T02:06:28.937Z,101666.83
2018-02-15T02:08:57.257Z,101666.79
2018-02-15T02:11:25.616Z,101663.86
2018-02-15T02:13:53.939Z,101662.04
2018-02-15T02:16:22.293Z,101650.76
2018-02-15T02:18:50.675Z,101647.97
2018-02-15T02:21:19.009Z,101650.98
2018-02-15T02:23:47.372Z,101649.44
2018-02-15T02:26:16.460Z,101651.96
2018-02-15T02:28:45.583Z,101650.59
2018-02-15T02:31:13.923Z,101655.28
2018-02-15T02:33:43.017Z,101651.03
2018-02-15T02:36:12.161Z,101654.92
2018-02-15T02:38:40.523Z,101645.51
2018-02-15T02:41:08.860Z,101643.13
2018-02-15T02:43:37.227Z,101637.98
2018-02-15T02:46:05.554Z,101634.60
2018-02-15T02:48:33.879Z,101635.05
2018-02-15T02:51:02.256Z,101634.49
2018-02-15T02:53:30.611Z,101635.38
2018-02-15T02:55:58.972Z,101637.45
2018-02-15T02:58:27.300Z,101636.45
2018-02-15T03:00:55.647Z,101636.09
2018-02-15T03:03:24.005Z,101631.86
2018-02-15T03:05:52.356Z,101633.67
2018-02-15T03:08:21.492Z,101627.55
2018-02-15T03:10:51.156Z,101634.53
2018-02-15T03:13:20.300Z,101630.01
2018-02-15T03:15:48.638Z,101632.12
2018-02-15T03:18:17.719Z,101633.83
2018-02-15T03:20:46.819Z,101634.05
2018-02-15T03:23:15.168Z,101637.16
2018-02-15T03:25:43.527Z,101633.58
2018-02-15T03:28:12.265Z,101640.53
2018-02-15T03:30:41.400Z,101642.39
2018-02-15T03:33:09.721Z,101640.35
2018-02-15T03:35:38.088Z,101643.73
2018-02-15T03:38:06.425Z,101637.02
2018-02-15T03:40:34.792Z,101627.70
2018-02-15T03:43:03.156Z,101626.67
2018-02-15T03:45:32.232Z,101636.79
2018-02-15T03:48:01.364Z,101639.12
2018-02-15T03:50:29.703Z,101642.47
2018-02-15T03:52:58.788Z,101639.64
2018-02-15T03:55:27.148Z,101638.46
2018-02-15T03:57:55.495Z,101635.16
2018-02-15T04:00:23.812Z,101632.06
2018-02-15T04:02:52.121Z,101635.23
2018-02-15T04:05:21.222Z,101632.53
2018-02-15T04:07:49.569Z,101632.18
2018-02-15T04:10:17.922Z,101632.55
2018-02-15T04:12:46.256Z,101628.25
2018-02-15T04:15:14.645Z,101628.98
2018-02-15T04:17:42.972Z,101626.84
2018-02-15T04:20:11.282Z,101617.16
2018-02-15T04:22:39.622Z,101615.98
2018-02-15T04:25:08.726Z,101622.62
2018-02-15T04:27:37.083Z,101615.09
2018-02-15T04:30:05.422Z,101622.63
2018-02-15T04:32:33.784Z,101627.27
2018-02-15T04:35:02.115Z,101618.14
2018-02-15T04:37:30.449Z,101614.98
2018-02-15T04:39:58.811Z,101613.97
2018-02-15T04:42:27.906Z,101614.39
2018-02-15T04:44:57.031Z,101611.57
2018-02-15T04:47:25.367Z,101619.91
2018-02-15T04:49:53.745Z,101613.88
2018-02-15T04:52:22.064Z,101612.20
2018-02-15T04:54:50.377Z,101615.55
2018-02-15T04:57:18.752Z,101611.77
2018-02-15T04:59:47.119Z,101606.08
2018-02-15T05:02:15.487Z,101613.16
2018-02-15T05:04:43.839Z,101612.86
2018-02-15T05:07:12.166Z,101615.69
2018-02-15T05:09:40.672Z,101611.01
2018-02-15T05:12:08.999Z,101608.05
2018-02-15T05:14:37.371Z,101613.57
2018-02-15T05:17:05.727Z,101610.79
2018-02-15T05:19:34.075Z,101609.63
2018-02-15T05:22:02.440Z,101615.80
2018-02-15T05:24:30.775Z,101612.50
2018-02-15T05:26:59.127Z,101617.36
2018-02-15T05:29:28.247Z,101609.72
2018-02-15T05:31:56.603Z,101622.59
2018-02-15T05:34:25.723Z,101626.52
2018-02-15T05:36:54.043Z,101626.20
2018-02-15T05:39:22.399Z,101618.31
2018-02-15T05:41:50.828Z,101620.23
2018-02-15T05:44:19.925Z,101621.24
2018-02-15T05:46:49.037Z,101621.47
2018-02-15T05:49:17.355Z,101620.42
2018-02-15T05:51:45.739Z,101617.28
2018-02-15T05:54:14.091Z,101616.17
2018-02-15T05:56:42.450Z,101621.70
2018-02-15T05:59:10.799Z,101621.29
2018-02-15T06:01:39.925Z,101621.66
2018-02-15T06:04:08.269Z,101615.35
2018-02-15T06:06:38.339Z,101613.46
2018-02-15T06:09:06.710Z,101614.75
2018-02-15T06:11:35.082Z,101627.41
2018-02-15T06:14:03.446Z,101619.72
2018-02-15T06:16:31.775Z,101626.29
2018-02-15T06:19:00.142Z,101628.03
2018-02-15T06:21:28.460Z,101632.80
2018-02-15T06:23:56.813Z,101627.25
2018-02-15T06:26:25.154Z,101627.34
2018-02-15T06:28:53.491Z,101624.30
2018-02-15T06:31:22.622Z,101618.70
2018-02-15T06:33:50.994Z,101613.31
2018-02-15T06:36:19.339Z,101618.98
2018-02-15T06:38:48.438Z,101624.52
2018-02-15T06:41:17.566Z,101622.33
2018-02-15T06:43:45.908Z,101614.86
2018-02-15T06:46:15.000Z,101610.91
2018-02-15T06:48:44.122Z,101602.11
2018-02-15T06:51:12.466Z,101600.34
2018-02-15T06:53:41.590Z,101606.78
2018-02-15T06:56:10.543Z,101597.84
2018-02-15T06:58:38.868Z,101600.28
2018-02-15T07:01:07.225Z,101605.02
2018-02-15T07:03:37.072Z,101606.66
2018-02-15T07:06:05.396Z,101605.94
2018-02-15T07:08:33.774Z,101602.52
2018-02-15T07:11:02.101Z,101602.68
2018-02-15T07:13:30.462Z,101599.02
2018-02-15T07:15:58.804Z,101604.26
2018-02-15T07:18:27.108Z,101600.07
2018-02-15T07:20:56.230Z,101591.50
2018-02-15T07:23:24.570Z,101583.22
2018-02-15T07:25:53.707Z,101583.53
2018-02-15T07:28:22.034Z,101581.63
2018-02-15T07:30:51.144Z,101572.63
2018-02-15T07:33:20.254Z,101572.89
2018-02-15T07:35:48.608Z,101577.36
2018-02-15T07:38:17.700Z,101575.41
2018-02-15T07:40:46.080Z,101574.20
2018-02-15T07:43:15.164Z,101574.56
2018-02-15T07:45:43.482Z,101577.13
2018-02-15T07:48:11.822Z,101575.92
2018-02-15T07:50:40.138Z,101574.00
2018-02-15T07:53:08.478Z,101562.48
2018-02-15T07:55:36.836Z,101559.86
2018-02-15T07:58:05.140Z,101557.43
2018-02-15T08:00:34.258Z,101557.42
2018-02-15T08:03:02.574Z,101557.83
2018-02-15T08:05:30.916Z,101561.34
2018-02-15T08:07:59.264Z,101556.45
2018-02-15T08:10:28.344Z,101559.94
2018-02-15T08:12:56.678Z,101563.11
2018-02-15T08:15:25.026Z,101565.05
2018-02-15T08:17:53.779Z,101558.09
2018-02-15T08:20:23.511Z,101565.33
2018-02-15T08:22:52.627Z,101557.93
2018-02-15T08:25:21.746Z,101549.38
2018-02-15T08:27:50.087Z,101545.74
2018-02-15T08:30:19.244Z,101549.37
2018-02-15T08:32:47.594Z,101556.98
2018-02-15T08:35:15.951Z,101557.66
2018-02-15T08:37:45.059Z,101550.70
2018-02-15T08:40:13.378Z,101550.03
2018-02-15T08:42:41.754Z,101544.55
2018-02-15T08:45:10.070Z,101544.83
2018-02-15T08:47:39.710Z,101545.96
2018-02-15T08:50:08.022Z,101551.03
2018-02-15T08:52:36.385Z,101552.14
2018-02-15T08:55:04.707Z,101550.05
2018-02-15T08:57:33.812Z,101554.00
2018-02-15T09:00:02.150Z,101556.00
2018-02-15T09:02:30.498Z,101550.31
2018-02-15T09:04:58.807Z,101551.02
2018-02-15T09:07:27.164Z,101545.02
2018-02-15T09:09:55.597Z,101543.61
2018-02-15T09:12:24.672Z,101553.62
2018-02-15T09:14:53.806Z,101553.52
2018-02-15T09:17:22.140Z,101552.27
2018-02-15T09:19:50.841Z,101548.09
2018-02-15T09:22:19.944Z,101542.94
2018-02-15T09:24:49.068Z,101547.27
2018-02-15T09:27:17.418Z,101540.91
2018-02-15T09:29:45.737Z,101544.28
2018-02-15T09:32:14.060Z,101539.75
2018-02-15T09:34:43.150Z,101535.56
2018-02-15T09:37:12.251Z,101533.30
2018-02-15T09:39:41.335Z,101535.28
2018-02-15T09:42:09.693Z,101531.41
2018-02-15T09:44:38.033Z,101532.44
2018-02-15T09:47:06.406Z,101522.63
2018-02-15T09:49:34.769Z,101516.41
2018-02-15T09:52:03.076Z,101509.77
2018-02-15T09:54:31.429Z,101513.32
2018-02-15T09:56:59.781Z,101503.55
2018-02-15T09:59:28.102Z,101512.57
2018-02-15T10:01:56.469Z,101515.13
2018-02-15T10:04:24.797Z,101511.67
2018-02-15T10:06:53.170Z,101512.69
2018-02-15T10:09:21.483Z,101517.86
2018-02-15T10:11:51.013Z,101506.97
2018-02-15T10:14:19.330Z,101509.97
2018-02-15T10:16:47.690Z,101500.99
2018-02-15T10:19:16.016Z,101506.57
2018-02-15T10:21:45.148Z,101501.77
2018-02-15T10:24:13.469Z,101495.04
2018-02-15T10:26:41.817Z,101487.13
2018-02-15T10:29:10.141Z,101482.48
2018-02-15T10:31:39.327Z,101479.31
2018-02-15T10:34:07.674Z,101475.03
2018-02-15T10:36:36.064Z,101464.80
2018-02-15T10:39:04.417Z,101470.47
2018-02-15T10:41:32.748Z,101460.19
2018-02-15T10:44:01.868Z,101459.97
2018-02-15T10:46:30.269Z,101465.27
2018-02-15T10:48:58.576Z,101465.00
2018-02-15T10:51:26.901Z,101467.19
2018-02-15T10:53:55.269Z,101466.14
2018-02-15T10:56:23.579Z,101454.91
2018-02-15T10:58:51.917Z,101460.20
2018-02-15T11:01:26.571Z,101452.98
2018-02-15T11:04:00.316Z,101445.69
2018-02-15T11:06:28.629Z,101450.77
2018-02-15T11:08:56.953Z,101452.72
2018-02-15T11:11:25.307Z,101451.55
2018-02-15T11:13:53.651Z,101449.58
2018-02-15T11:16:22.741Z,101439.84
2018-02-15T11:18:51.869Z,101434.59
2018-02-15T11:21:21.316Z,101429.95
2018-02-15T11:23:50.068Z,101421.13
2018-02-15T11:26:18.428Z,101421.73
2018-02-15T11:28:46.735Z,101410.47
2018-02-15T11:31:15.070Z,101418.39
2018-02-15T11:33:44.300Z,101412.39
2018-02-15T11:36:12.515Z,101410.23
2018-02-15T11:38:40.880Z,101405.16
2018-02-15T11:41:09.192Z,101410.13
2018-02-15T11:43:38.308Z,101416.06
2018-02-15T11:46:06.637Z,101409.58
2018-02-15T11:48:34.944Z,101398.71
2018-02-15T11:51:03.282Z,101398.03
2018-02-15T11:53:31.604Z,101398.29
2018-02-15T11:55:59.950Z,101399.52
2018-02-15T11:58:28.276Z,101387.81
2018-02-15T12:00:56.604Z,101387.31
2018-02-15T12:03:24.961Z,101386.49
2018-02-15T12:05:53.288Z,101389.27
2018-02-15T12:08:21.630Z,101385.87
2018-02-15T12:10:49.981Z,101379.50
2018-02-15T12:13:18.350Z,101376.34
2018-02-15T12:15:46.685Z,101375.23
2018-02-15T12:18:15.773Z,101366.27
2018-02-15T12:20:44.907Z,101351.80
2018-02-15T12:23:13.227Z,101354.36
2018-02-15T12:25:41.549Z,101341.52
2018-02-15T12:28:09.891Z,101331.14
2018-02-15T12:30:38.203Z,101329.73
2018-02-15T12:33:06.568Z,101322.82
2018-02-15T12:35:35.715Z,101315.33
2018-02-15T12:38:04.052Z,101317.88
2018-02-15T12:40:32.368Z,101300.43
2018-02-15T12:43:00.724Z,101291.70
2018-02-15T12:45:29.076Z,101292.95
2018-02-15T12:47:58.196Z,101293.91
2018-02-15T12:50:26.524Z,101297.92
2018-02-15T12:52:55.684Z,101297.50
2018-02-15T12:55:23.974Z,101289.09
2018-02-15T12:57:52.320Z,101291.73
2018-02-15T13:00:20.679Z,101285.67
2018-02-15T13:02:49.004Z,101281.81
2018-02-15T13:05:17.358Z,101287.63
2018-02-15T13:07:45.675Z,101285.59
2018-02-15T13:10:14.040Z,101283.16
2018-02-15T13:13:00.118Z,101281.31
2018-02-15T13:15:46.152Z,101274.70
2018-02-15T13:18:15.297Z,101269.17
2018-02-15T13:20:43.633Z,101260.95
2018-02-15T13:23:12.814Z,101256.13
2018-02-15T13:25:42.004Z,101249.16
2018-02-15T13:28:28.110Z,101244.41
2018-02-15T13:30:56.441Z,101241.48
2018-02-15T13:33:24.789Z,101238.75
2018-02-15T13:35:53.148Z,101232.97
2018-02-15T13:38:21.503Z,101240.95
2018-02-15T13:40:49.842Z,101241.41
2018-02-15T13:43:18.184Z,101246.96
2018-02-15T13:45:47.268Z,101234.82
2018-02-15T13:48:15.628Z,101234.53
2018-02-15T13:50:43.965Z,101237.67
2018-02-15T13:53:12.312Z,101233.80
2018-02-15T13:55:41.407Z,101241.22
2018-02-15T13:58:10.547Z,101243.34
2018-02-15T14:00:38.864Z,101242.20
2018-02-15T14:03:07.227Z,101238.11
2018-02-15T14:05:35.572Z,101234.25
2018-02-15T14:08:03.891Z,101241.06
2018-02-15T14:10:32.306Z,101240.34
2018-02-15T14:13:00.620Z,101240.37
2018-02-15T14:15:28.947Z,101231.80
2018-02-15T14:17:58.072Z,101227.77
2018-02-15T14:20:26.382Z,101225.09
2018-02-15T14:22:54.741Z,101219.33
2018-02-15T14:25:23.041Z,101217.84
2018-02-15T14:27:51.395Z,101221.19
2018-02-15T14:30:19.823Z,101218.78
2018-02-15T14:32:48.165Z,101212.70
2018-02-15T14:35:16.491Z,101206.50
2018-02-15T14:37:44.832Z,101211.44
2018-02-15T14:40:13.937Z,101210.52
2018-02-15T14:42:42.281Z,101208.36
2018-02-15T14:45:10.603Z,101205.70
2018-02-15T14:47:39.731Z,101200.42
2018-02-15T14:50:08.054Z,101204.01
2018-02-15T14:52:36.431Z,101202.32
2018-02-15T14:55:04.753Z,101194.09
2018-02-15T14:57:33.075Z,101193.73
2018-02-15T15:00:01.433Z,101187.16
2018-02-15T15:02:29.741Z,101185.73
2018-02-15T15:04:58.106Z,101169.77
2018-02-15T15:07:26.455Z,101194.24
2018-02-15T15:09:54.795Z,101072.44
2018-02-15T15:12:23.173Z,101186.82
2018-02-15T15:14:51.523Z,101181.88
2018-02-15T15:17:19.818Z,101184.83
2018-02-15T15:19:48.170Z,101184.07
2018-02-15T15:22:16.517Z,101175.67
2018-02-15T15:24:44.909Z,101166.93
2018-02-15T15:27:13.221Z,101171.28
2018-02-15T15:29:42.324Z,101175.55
2018-02-15T15:32:10.671Z,101169.83
2018-02-15T15:34:38.977Z,101173.23
2018-02-15T15:37:07.359Z,101153.62
2018-02-15T15:39:35.688Z,101151.41
2018-02-15T15:42:04.012Z,101154.41
2018-02-15T15:44:32.367Z,101157.84
2018-02-15T15:47:00.743Z,101157.36
2018-02-15T15:49:29.197Z,101158.06
2018-02-15T15:51:57.558Z,101151.02
2018-02-15T15:54:25.875Z,101143.55
2018-02-15T15:56:54.211Z,101139.95
2018-02-15T15:59:22.580Z,101142.90
2018-02-15T16:01:51.067Z,101144.34
2018-02-15T16:04:19.390Z,101144.16
2018-02-15T16:06:47.755Z,101142.46
2018-02-15T16:09:16.129Z,101139.77
2018-02-15T16:11:45.796Z,101140.70
2018-02-15T16:14:14.926Z,101138.89
2018-02-15T16:16:43.252Z,101137.12
2018-02-15T16:19:11.910Z,101137.09
2018-02-15T16:21:40.334Z,101143.13
2018-02-15T16:24:10.254Z,101147.05
2018-02-15T16:26:39.366Z,101151.42
2018-02-15T16:29:07.723Z,101148.75
2018-02-15T16:31:37.734Z,101137.95
2018-02-15T16:34:06.828Z,101140.89
2018-02-15T16:36:35.962Z,101138.39
2018-02-15T16:39:04.265Z,101136.20
2018-02-15T16:41:32.580Z,101132.16
2018-02-15T16:44:01.714Z,101135.20
2018-02-15T16:46:30.480Z,101132.56
2018-02-15T16:48:59.327Z,101128.67
2018-02-15T16:51:27.708Z,101130.38
2018-02-15T16:53:56.114Z,101143.92
2018-02-15T16:56:25.206Z,101142.14
2018-02-15T16:58:53.586Z,101151.77
2018-02-15T17:01:22.713Z,101159.03
2018-02-15T17:03:51.863Z,101161.20
2018-02-15T17:06:20.250Z,101159.42
2018-02-15T17:08:50.104Z,101161.50
2018-02-15T17:11:18.456Z,101154.63
2018-02-15T17:13:47.067Z,101158.54
2018-02-15T17:16:15.792Z,101146.29
2018-02-15T17:18:45.903Z,101140.69
2018-02-15T17:21:14.241Z,101138.11
2018-02-15T17:23:42.642Z,101140.62
2018-02-15T17:26:11.169Z,101131.55
2018-02-15T17:28:39.571Z,101129.40
2018-02-15T17:31:07.895Z,101125.77
2018-02-15T17:33:36.538Z,101127.92
2018-02-15T17:36:05.042Z,101130.03
2018-02-15T17:38:33.709Z,101130.98
2018-02-15T17:41:02.546Z,101130.48
2018-02-15T17:43:31.247Z,101123.09
2018-02-15T17:46:00.370Z,101113.84
2018-02-15T17:48:30.106Z,101118.27
2018-02-15T17:50:58.900Z,101110.87
2018-02-15T17:53:27.318Z,101112.23
2018-02-15T17:55:55.795Z,101107.41
2018-02-15T17:58:25.802Z,101102.14
2018-02-15T18:00:54.442Z,101100.05
2018-02-15T18:03:23.921Z,101094.45
2018-02-15T18:05:52.353Z,101090.00
2018-02-15T18:08:20.706Z,101089.94
2018-02-15T18:10:49.232Z,101088.20
2018-02-15T18:13:25.508Z,101083.78
2018-02-15T18:15:55.582Z,101084.78
2018-02-15T18:18:24.154Z,101080.28
2018-02-15T18:20:56.106Z,101081.66
2018-02-15T18:23:24.629Z,101081.67
2018-02-15T18:25:53.809Z,101087.39
2018-02-15T18:28:22.298Z,101089.52
2018-02-15T18:30:50.796Z,101091.75
2018-02-15T18:33:21.254Z,101091.37
2018-02-15T18:35:50.177Z,101089.12
2018-02-15T18:38:18.680Z,101084.28
2018-02-15T18:40:47.428Z,101083.03
2018-02-15T18:43:15.878Z,101081.26
2018-02-15T18:45:45.221Z,101081.36
2018-02-15T18:48:13.538Z,101079.16
2018-02-15T18:50:41.964Z,101081.29
2018-02-15T18:53:10.338Z,101084.71
2018-02-15T18:55:39.602Z,101080.73
2018-02-15T18:58:09.317Z,101082.52
2018-02-15T19:00:38.790Z,101074.72
2018-02-15T19:03:07.159Z,101071.20
2018-02-15T19:05:35.842Z,101073.78
2018-02-15T19:08:04.178Z,101066.33
2018-02-15T19:10:32.558Z,101066.48
2018-02-15T19:13:00.885Z,101054.22
2018-02-15T19:15:29.249Z,101056.00
2018-02-15T19:17:57.594Z,101049.50
2018-02-15T19:20:25.953Z,101049.48
2018-02-15T19:22:55.067Z,101050.77
2018-02-15T19:25:23.489Z,101042.48
2018-02-15T19:27:52.490Z,101037.70
2018-02-15T19:30:22.809Z,101029.89
2018-02-15T19:32:51.128Z,101030.73
2018-02-15T19:35:20.895Z,101027.64
2018-02-15T19:37:50.026Z,101029.84
2018-02-15T19:40:19.145Z,101039.06
2018-02-15T19:42:47.483Z,101042.52
2018-02-15T19:45:15.920Z,101033.80
2018-02-15T19:47:44.473Z,101033.41
2018-02-15T19:50:13.571Z,101039.06
2018-02-15T19:52:42.002Z,101038.99
2018-02-15T19:55:10.356Z,101077.80
2018-02-15T19:57:38.751Z,101051.63
2018-02-15T20:00:07.077Z,101045.90
2018-02-15T20:02:36.378Z,101048.58
2018-02-15T20:05:06.352Z,101047.23
2018-02-15T20:07:35.118Z,101045.54
2018-02-15T20:10:04.025Z,101052.53
2018-02-15T20:12:32.460Z,101051.63
2018-02-15T20:15:00.880Z,101042.08
2018-02-15T20:17:29.263Z,101048.55
2018-02-15T20:20:03.302Z,101053.83
2018-02-15T20:22:31.654Z,101046.39
2018-02-15T20:25:00.007Z,101051.70
2018-02-15T20:27:33.798Z,101041.03
2018-02-15T20:30:02.158Z,101043.64
2018-02-15T20:32:31.373Z,101041.46
2018-02-15T20:34:59.736Z,101043.56
2018-02-15T20:37:35.953Z,101038.33
2018-02-15T20:40:09.903Z,101036.56
2018-02-15T20:42:39.784Z,101035.05
2018-02-15T20:45:09.355Z,101035.06
2018-02-15T20:47:37.724Z,101028.84
2018-02-15T20:50:12.468Z,101032.00
2018-02-15T20:52:54.763Z,101034.73
2018-02-15T20:55:28.709Z,101027.19
2018-02-15T20:57:57.115Z,101035.51
2018-02-15T21:00:27.107Z,101033.57
2018-02-15T21:02:55.472Z,101035.77
2018-02-15T21:05:23.824Z,101037.56
2018-02-15T21:07:52.170Z,101035.89
2018-02-15T21:10:20.917Z,101036.66
2018-02-15T21:12:49.360Z,101037.97
2018-02-15T21:15:17.735Z,101038.97
2018-02-15T21:17:46.110Z,101042.50
2018-02-15T21:20:14.489Z,101039.16
2018-02-15T21:22:42.840Z,101037.53
2018-02-15T21:25:11.914Z,101030.59
2018-02-15T21:27:40.262Z,101028.36
2018-02-15T21:30:08.601Z,101026.19
2018-02-15T21:32:37.728Z,101030.05
2018-02-15T21:35:06.067Z,101026.22
2018-02-15T21:37:34.480Z,101028.45
2018-02-15T21:40:03.613Z,101031.54
2018-02-15T21:42:31.936Z,101028.59
2018-02-15T21:45:00.364Z,101035.08
2018-02-15T21:47:28.689Z,101031.11
2018-02-15T21:49:57.039Z,101034.75
2018-02-15T21:52:25.364Z,101033.30
2018-02-15T21:54:54.440Z,101035.10
2018-02-15T21:57:22.797Z,101029.96
2018-02-15T21:59:51.916Z,101037.84
2018-02-15T22:02:20.287Z,101036.55
2018-02-15T22:04:48.723Z,101040.47
2018-02-15T22:07:17.034Z,101031.19
2018-02-15T22:09:46.161Z,101033.42
2018-02-15T22:12:14.506Z,101026.38
2018-02-15T22:14:43.630Z,101026.25
2018-02-15T22:17:11.943Z,101023.27
2018-02-15T22:19:40.611Z,101021.69
2018-02-15T22:22:08.975Z,101025.98
2018-02-15T22:24:37.397Z,101032.55
2018-02-15T22:27:05.743Z,101032.04
2018-02-15T22:29:35.027Z,101037.57
2018-02-15T22:32:03.477Z,101041.89
2018-02-15T22:34:32.591Z,101037.20
2018-02-15T22:37:00.913Z,101037.37
2018-02-15T22:39:29.839Z,101035.70
2018-02-15T22:41:59.729Z,101035.67
2018-02-15T22:44:28.069Z,101031.02
2018-02-15T22:46:56.379Z,101033.70
2018-02-15T22:49:24.689Z,101028.86
2018-02-15T22:51:53.821Z,101028.72
2018-02-15T22:54:22.147Z,101031.38
2018-02-15T22:56:50.503Z,101035.39
2018-02-15T22:59:18.852Z,101031.92
2018-02-15T23:01:47.187Z,101035.42
2018-02-15T23:04:15.967Z,101029.78
2018-02-15T23:06:45.115Z,101033.41
2018-02-15T23:09:13.540Z,101029.04
2018-02-15T23:11:42.681Z,101033.79
2018-02-15T23:14:11.533Z,101023.78
2018-02-15T23:16:40.641Z,101029.97
2018-02-15T23:19:09.021Z,101029.08
2018-02-15T23:21:37.363Z,101032.09
2018-02-15T23:24:05.736Z,101031.61
2018-02-15T23:26:34.071Z,101037.27
2018-02-15T23:29:03.177Z,101039.95
2018-02-15T23:31:31.560Z,101034.75
2018-02-15T23:33:59.902Z,101026.92
2018-02-15T23:36:29.028Z,101018.88
2018-02-15T23:38:57.406Z,101019.72
2018-02-15T23:41:25.768Z,101014.41
2018-02-15T23:43:54.150Z,101016.22
2018-02-15T23:46:22.504Z,101022.31
2018-02-15T23:48:50.896Z,101029.70
2018-02-15T23:51:19.247Z,101021.84
2018-02-15T23:53:48.393Z,101021.52
2018-02-15T23:56:16.711Z,101023.31
2018-02-15T23:58:45.877Z,101027.69
